createdAt,value
2023-05-17T00:00:58.926Z,9.10
2023-05-17T00:01:58.934Z,7.70
2023-05-17T00:02:58.973Z,8.90
2023-05-17T00:03:58.898Z,7.30
2023-05-17T00:04:59.068Z,11.50
2023-05-17T00:05:58.968Z,10.50
2023-05-17T00:06:58.913Z,10.60
2023-05-17T00:07:58.866Z,10.80
2023-05-17T00:08:58.857Z,12.20
2023-05-17T00:09:58.858Z,12.10
2023-05-17T00:10:58.848Z,8.30
2023-05-17T00:11:58.874Z,10.40
2023-05-17T00:12:58.826Z,8.90
2023-05-17T00:13:58.828Z,9.90
2023-05-17T00:14:58.821Z,10.20
2023-05-17T00:15:58.843Z,12.20
2023-05-17T00:16:58.911Z,10.00
2023-05-17T00:17:58.842Z,11.30
2023-05-17T00:18:58.917Z,9.40
2023-05-17T00:19:58.785Z,11.80
2023-05-17T00:20:58.800Z,10.40
2023-05-17T00:21:58.825Z,10.40
2023-05-17T00:22:58.751Z,10.70
2023-05-17T00:23:58.747Z,10.00
2023-05-17T00:24:58.750Z,10.00
2023-05-17T00:25:58.760Z,10.30
2023-05-17T00:26:58.722Z,11.50
2023-05-17T00:27:58.752Z,13.60
2023-05-17T00:28:58.714Z,12.00
2023-05-17T00:29:58.729Z,10.70
2023-05-17T00:30:58.723Z,11.40
2023-05-17T00:31:58.691Z,11.00
2023-05-17T00:32:58.722Z,9.80
2023-05-17T00:33:58.672Z,9.20
2023-05-17T00:34:58.734Z,9.90
2023-05-17T00:35:58.663Z,8.90
2023-05-17T00:36:58.655Z,9.30
2023-05-17T00:37:58.716Z,8.50
2023-05-17T00:38:58.631Z,9.60
2023-05-17T00:39:58.649Z,9.50
2023-05-17T00:40:58.628Z,11.70
2023-05-17T00:41:58.614Z,11.30
2023-05-17T00:42:58.611Z,8.20
2023-05-17T00:43:58.624Z,8.70
2023-05-17T00:44:58.615Z,8.70
2023-05-17T00:45:58.597Z,7.20
2023-05-17T00:46:58.585Z,7.90
2023-05-17T00:47:58.647Z,9.20
2023-05-17T00:48:58.586Z,9.50
2023-05-17T00:49:58.561Z,8.60
2023-05-17T00:50:58.577Z,8.50
2023-05-17T00:51:58.528Z,9.20
2023-05-17T00:52:58.528Z,8.90
2023-05-17T00:53:58.595Z,8.70
2023-05-17T00:54:58.514Z,7.90
2023-05-17T00:55:58.523Z,8.80
2023-05-17T00:56:58.496Z,8.20
2023-05-17T00:57:58.517Z,8.90
2023-05-17T00:58:58.510Z,7.00
2023-05-17T00:59:58.474Z,8.10
2023-05-17T01:00:58.459Z,6.20
2023-05-17T01:01:58.459Z,9.20
2023-05-17T01:02:58.561Z,8.60
2023-05-17T01:03:58.557Z,9.20
2023-05-17T01:04:58.511Z,9.30
2023-05-17T01:05:58.437Z,7.90
2023-05-17T01:06:58.484Z,8.90
2023-05-17T01:07:58.435Z,10.50
2023-05-17T01:08:58.408Z,6.80
2023-05-17T01:09:58.504Z,10.50
2023-05-17T01:10:58.390Z,8.20
2023-05-17T01:11:58.405Z,8.80
2023-05-17T01:12:58.373Z,8.60
2023-05-17T01:13:58.368Z,6.90
2023-05-17T01:14:58.364Z,8.90
2023-05-17T01:15:58.361Z,9.50
2023-05-17T01:16:58.367Z,11.70
2023-05-17T01:17:58.399Z,13.30
2023-05-17T01:18:58.475Z,14.60
2023-05-17T01:19:58.508Z,17.80
2023-05-17T01:20:58.308Z,20.50
2023-05-17T01:21:58.359Z,16.30
2023-05-17T01:22:58.292Z,15.30
2023-05-17T01:23:58.287Z,11.80
2023-05-17T01:24:58.281Z,12.70
2023-05-17T01:25:58.369Z,11.70
2023-05-17T01:26:58.285Z,11.70
2023-05-17T01:27:58.262Z,10.30
2023-05-17T01:28:58.251Z,10.10
2023-05-17T01:29:58.261Z,12.70
2023-05-17T01:30:58.257Z,10.50
2023-05-17T01:31:58.281Z,10.40
2023-05-17T01:32:58.375Z,8.60
2023-05-17T01:33:58.299Z,7.80
2023-05-17T01:34:58.212Z,10.10
2023-05-17T01:35:58.217Z,9.50
2023-05-17T01:36:58.202Z,11.90
2023-05-17T01:37:58.191Z,14.00
2023-05-17T01:38:58.188Z,12.70
2023-05-17T01:39:58.189Z,10.60
2023-05-17T01:40:58.210Z,9.70
2023-05-17T01:41:58.198Z,11.40
2023-05-17T01:42:58.170Z,12.20
2023-05-17T01:43:58.150Z,10.60
2023-05-17T01:44:58.157Z,11.30
2023-05-17T01:45:58.141Z,10.40
2023-05-17T01:46:58.110Z,11.40
2023-05-17T01:47:58.213Z,12.00
2023-05-17T01:48:58.108Z,9.90
2023-05-17T01:49:58.113Z,9.50
2023-05-17T01:50:58.221Z,10.20
2023-05-17T01:51:58.081Z,9.90
2023-05-17T01:52:58.054Z,11.90
2023-05-17T01:53:59.083Z,9.10
2023-05-17T01:54:58.074Z,10.40
2023-05-17T01:55:59.077Z,7.70
2023-05-17T01:56:58.034Z,10.20
2023-05-17T01:57:58.097Z,9.50
2023-05-17T01:58:58.051Z,8.20
2023-05-17T01:59:58.004Z,9.40
2023-05-17T02:00:58.009Z,9.70
2023-05-17T02:01:57.992Z,10.60
2023-05-17T02:02:58.049Z,11.40
2023-05-17T02:03:58.007Z,10.00
2023-05-17T02:04:57.986Z,9.70
2023-05-17T02:05:57.961Z,8.80
2023-05-17T02:06:57.959Z,10.30
2023-05-17T02:07:57.999Z,9.80
2023-05-17T02:08:57.974Z,8.60
2023-05-17T02:09:57.953Z,9.70
2023-05-17T02:10:57.922Z,11.90
2023-05-17T02:11:57.928Z,11.10
2023-05-17T02:12:57.936Z,12.40
2023-05-17T02:13:57.960Z,11.00
2023-05-17T02:14:57.894Z,11.30
2023-05-17T02:15:57.887Z,8.50
2023-05-17T02:16:57.883Z,11.40
2023-05-17T02:17:58.004Z,8.40
2023-05-17T02:18:57.946Z,9.40
2023-05-17T02:19:57.863Z,8.90
2023-05-17T02:20:57.849Z,9.20
2023-05-17T02:21:57.889Z,9.60
2023-05-17T02:22:57.860Z,11.50
2023-05-17T02:23:57.835Z,11.60
2023-05-17T02:24:57.820Z,13.50
2023-05-17T02:25:57.811Z,10.20
2023-05-17T02:26:57.873Z,8.60
2023-05-17T02:27:57.798Z,10.40
2023-05-17T02:28:57.788Z,9.10
2023-05-17T02:29:57.838Z,8.70
2023-05-17T02:30:57.768Z,9.40
2023-05-17T02:31:57.832Z,10.40
2023-05-17T02:32:57.881Z,10.40
2023-05-17T02:33:57.817Z,9.40
2023-05-17T02:34:57.743Z,9.00
2023-05-17T02:35:57.764Z,11.70
2023-05-17T02:36:57.754Z,8.00
2023-05-17T02:37:57.790Z,11.00
2023-05-17T02:38:57.709Z,9.80
2023-05-17T02:39:57.711Z,8.90
2023-05-17T02:40:57.731Z,9.50
2023-05-17T02:41:57.688Z,9.10
2023-05-17T02:42:57.774Z,10.00
2023-05-17T02:43:57.683Z,8.90
2023-05-17T02:44:57.667Z,11.10
2023-05-17T02:45:57.731Z,10.60
2023-05-17T02:46:58.704Z,9.60
2023-05-17T02:47:57.663Z,9.60
2023-05-17T02:48:57.645Z,9.00
2023-05-17T02:49:57.670Z,10.00
2023-05-17T02:50:57.647Z,10.80
2023-05-17T02:51:57.612Z,8.10
2023-05-17T02:52:57.622Z,10.00
2023-05-17T02:53:57.602Z,10.50
2023-05-17T02:54:57.638Z,10.10
2023-05-17T02:55:57.587Z,11.70
2023-05-17T02:56:57.569Z,10.90
2023-05-17T02:57:57.563Z,9.70
2023-05-17T02:58:57.592Z,9.40
2023-05-17T02:59:57.566Z,10.00
2023-05-17T03:00:57.535Z,10.20
2023-05-17T03:01:57.584Z,10.10
2023-05-17T03:02:57.587Z,9.60
2023-05-17T03:03:57.650Z,10.30
2023-05-17T03:04:57.536Z,9.50
2023-05-17T03:05:57.501Z,11.90
2023-05-17T03:06:57.499Z,8.70
2023-05-17T03:07:57.516Z,8.30
2023-05-17T03:08:57.509Z,9.50
2023-05-17T03:09:57.496Z,10.10
2023-05-17T03:10:57.484Z,8.80
2023-05-17T03:11:57.457Z,12.20
2023-05-17T03:12:57.446Z,10.50
2023-05-17T03:13:57.482Z,8.50
2023-05-17T03:14:57.435Z,11.30
2023-05-17T03:15:57.432Z,9.20
2023-05-17T03:16:57.416Z,8.70
2023-05-17T03:17:57.864Z,9.30
2023-05-17T03:18:57.666Z,8.90
2023-05-17T03:19:57.417Z,9.00
2023-05-17T03:20:57.390Z,10.20
2023-05-17T03:21:57.388Z,10.50
2023-05-17T03:22:57.370Z,11.00
2023-05-17T03:23:57.396Z,9.90
2023-05-17T03:24:57.353Z,9.20
2023-05-17T03:25:57.343Z,8.60
2023-05-17T03:26:57.343Z,10.60
2023-05-17T03:27:57.357Z,9.40
2023-05-17T03:28:57.361Z,10.20
2023-05-17T03:29:57.315Z,9.30
2023-05-17T03:30:57.331Z,10.80
2023-05-17T03:31:57.312Z,9.80
2023-05-17T03:32:57.371Z,10.50
2023-05-17T03:33:57.330Z,10.00
2023-05-17T03:34:57.290Z,9.70
2023-05-17T03:35:57.281Z,7.30
2023-05-17T03:36:57.264Z,9.30
2023-05-17T03:37:57.280Z,9.10
2023-05-17T03:38:57.248Z,8.60
2023-05-17T03:39:57.249Z,8.20
2023-05-17T03:40:57.232Z,9.60
2023-05-17T03:41:57.252Z,9.50
2023-05-17T03:42:57.240Z,9.00
2023-05-17T03:43:57.218Z,10.40
2023-05-17T03:44:57.199Z,10.40
2023-05-17T03:45:57.190Z,9.70
2023-05-17T03:46:57.215Z,8.60
2023-05-17T03:47:57.188Z,9.70
2023-05-17T03:48:57.227Z,10.20
2023-05-17T03:49:57.404Z,9.20
2023-05-17T03:50:57.154Z,10.80
2023-05-17T03:51:57.173Z,9.20
2023-05-17T03:52:57.154Z,9.40
2023-05-17T03:53:57.139Z,11.20
2023-05-17T03:54:57.148Z,10.60
2023-05-17T03:55:57.136Z,9.60
2023-05-17T03:56:57.134Z,9.60
2023-05-17T03:57:57.095Z,11.20
2023-05-17T03:58:57.101Z,10.40
2023-05-17T03:59:57.083Z,11.20
2023-05-17T04:00:57.097Z,10.30
2023-05-17T04:01:57.066Z,10.80
2023-05-17T04:02:57.134Z,11.70
2023-05-17T04:03:57.093Z,11.80
2023-05-17T04:04:57.078Z,10.00
2023-05-17T04:05:57.115Z,10.00
2023-05-17T04:06:57.024Z,10.50
2023-05-17T04:07:57.025Z,9.60
2023-05-17T04:08:57.018Z,9.30
2023-05-17T04:09:57.014Z,9.80
2023-05-17T04:10:57.038Z,9.90
2023-05-17T04:11:56.999Z,10.90
2023-05-17T04:12:56.986Z,9.80
2023-05-17T04:13:56.975Z,9.90
2023-05-17T04:14:56.964Z,10.80
2023-05-17T04:15:57.008Z,11.00
2023-05-17T04:16:56.955Z,10.70
2023-05-17T04:17:57.028Z,12.00
2023-05-17T04:18:56.998Z,10.20
2023-05-17T04:19:56.997Z,10.20
2023-05-17T04:20:56.956Z,10.90
2023-05-17T04:21:56.967Z,9.90
2023-05-17T04:22:56.923Z,11.30
2023-05-17T04:23:56.909Z,11.00
2023-05-17T04:24:56.933Z,10.50
2023-05-17T04:25:56.883Z,10.00
2023-05-17T04:26:56.894Z,9.20
2023-05-17T04:27:56.868Z,11.30
2023-05-17T04:28:56.859Z,10.40
2023-05-17T04:29:56.924Z,9.50
2023-05-17T04:30:56.845Z,10.50
2023-05-17T04:31:56.827Z,8.90
2023-05-17T04:32:57.858Z,11.30
2023-05-17T04:33:56.888Z,10.80
2023-05-17T04:34:56.850Z,11.30
2023-05-17T04:35:56.898Z,11.60
2023-05-17T04:36:56.806Z,9.70
2023-05-17T04:37:56.964Z,10.60
2023-05-17T04:38:56.807Z,10.30
2023-05-17T04:39:56.783Z,9.40
2023-05-17T04:40:56.770Z,12.40
2023-05-17T04:41:56.771Z,10.20
2023-05-17T04:42:56.755Z,9.30
2023-05-17T04:43:56.774Z,11.20
2023-05-17T04:44:56.741Z,9.80
2023-05-17T04:45:56.807Z,10.00
2023-05-17T04:46:56.760Z,10.50
2023-05-17T04:47:56.795Z,10.50
2023-05-17T04:48:56.825Z,11.40
2023-05-17T04:49:56.702Z,11.60
2023-05-17T04:50:56.718Z,9.90
2023-05-17T04:51:56.687Z,11.30
2023-05-17T04:52:56.684Z,14.60
2023-05-17T04:53:56.747Z,10.60
2023-05-17T04:54:56.663Z,11.00
2023-05-17T04:55:56.684Z,11.10
2023-05-17T04:56:56.650Z,11.20
2023-05-17T04:57:56.669Z,9.70
2023-05-17T04:58:56.633Z,12.90
2023-05-17T04:59:56.667Z,11.20
2023-05-17T05:00:56.638Z,12.90
2023-05-17T05:01:56.608Z,12.90
2023-05-17T05:02:56.628Z,10.80
2023-05-17T05:03:56.692Z,12.00
2023-05-17T05:04:56.636Z,11.50
2023-05-17T05:05:56.584Z,10.60
2023-05-17T05:06:56.578Z,8.60
2023-05-17T05:07:56.574Z,11.40
2023-05-17T05:08:56.556Z,10.90
2023-05-17T05:09:56.568Z,10.50
2023-05-17T05:10:56.539Z,12.40
2023-05-17T05:11:57.123Z,11.70
2023-05-17T05:12:56.528Z,12.00
2023-05-17T05:13:56.525Z,12.00
2023-05-17T05:14:56.529Z,10.90
2023-05-17T05:15:56.495Z,11.60
2023-05-17T05:16:56.495Z,10.90
2023-05-17T05:17:56.534Z,11.90
2023-05-17T05:18:56.611Z,11.50
2023-05-17T05:19:56.527Z,11.20
2023-05-17T05:20:56.488Z,11.50
2023-05-17T05:21:56.469Z,10.30
2023-05-17T05:22:56.444Z,12.90
2023-05-17T05:23:56.455Z,11.60
2023-05-17T05:24:56.465Z,13.60
2023-05-17T05:25:56.417Z,11.20
2023-05-17T05:26:56.419Z,13.70
2023-05-17T05:27:56.408Z,11.30
2023-05-17T05:28:56.399Z,10.60
2023-05-17T05:29:56.416Z,12.70
2023-05-17T05:30:56.386Z,11.10
2023-05-17T05:31:56.410Z,9.80
2023-05-17T05:32:56.445Z,11.60
2023-05-17T05:33:56.431Z,11.90
2023-05-17T05:34:56.388Z,13.20
2023-05-17T05:35:56.341Z,10.90
2023-05-17T05:36:56.485Z,11.70
2023-05-17T05:37:56.341Z,10.10
2023-05-17T05:38:56.364Z,10.60
2023-05-17T05:39:56.344Z,12.10
2023-05-17T05:40:56.312Z,9.80
2023-05-17T05:41:56.354Z,9.80
2023-05-17T05:42:56.307Z,10.60
2023-05-17T05:43:56.310Z,10.20
2023-05-17T05:44:56.274Z,11.50
2023-05-17T05:45:57.282Z,12.70
2023-05-17T05:46:56.310Z,10.20
2023-05-17T05:47:56.308Z,9.70
2023-05-17T05:48:56.291Z,10.00
2023-05-17T05:49:56.249Z,11.30
2023-05-17T05:50:56.233Z,10.90
2023-05-17T05:51:56.224Z,15.90
2023-05-17T05:53:03.820Z,11.20
2023-05-17T05:53:58.238Z,11.40
2023-05-17T05:54:56.202Z,12.00
2023-05-17T05:55:56.217Z,13.40
2023-05-17T05:56:56.191Z,12.80
2023-05-17T05:57:56.298Z,11.80
2023-05-17T05:58:56.201Z,12.30
2023-05-17T05:59:56.169Z,12.40
2023-05-17T06:00:56.160Z,12.80
2023-05-17T06:01:56.150Z,13.30
2023-05-17T06:02:56.311Z,11.90
2023-05-17T06:03:56.140Z,13.60
2023-05-17T06:04:56.137Z,15.30
2023-05-17T06:05:56.193Z,13.10
2023-05-17T06:06:56.154Z,14.40
2023-05-17T06:07:57.011Z,11.20
2023-05-17T06:08:58.189Z,14.20
2023-05-17T06:09:56.091Z,14.50
2023-05-17T06:10:56.092Z,16.00
2023-05-17T06:11:56.077Z,13.70
2023-05-17T06:12:56.106Z,12.20
2023-05-17T06:13:56.058Z,14.50
2023-05-17T06:14:57.057Z,14.80
2023-05-17T06:15:56.073Z,19.90
2023-05-17T06:16:56.075Z,14.60
2023-05-17T06:17:56.119Z,15.10
2023-05-17T06:18:56.093Z,14.10
2023-05-17T06:19:56.034Z,15.10
2023-05-17T06:20:56.013Z,13.10
2023-05-17T06:21:56.027Z,12.70
2023-05-17T06:22:55.997Z,16.90
2023-05-17T06:23:56.002Z,13.10
2023-05-17T06:24:55.978Z,16.30
2023-05-17T06:25:55.970Z,15.60
2023-05-17T06:26:55.993Z,13.40
2023-05-17T06:27:55.957Z,12.70
2023-05-17T06:28:55.964Z,13.20
2023-05-17T06:29:55.949Z,13.50
2023-05-17T06:30:55.929Z,14.00
2023-05-17T06:31:55.953Z,13.60
2023-05-17T06:32:55.993Z,12.30
2023-05-17T06:33:55.925Z,13.50
2023-05-17T06:34:56.678Z,13.90
2023-05-17T06:35:57.528Z,15.00
2023-05-17T06:36:56.910Z,13.30
2023-05-17T06:37:55.911Z,12.80
2023-05-17T06:38:55.872Z,13.20
2023-05-17T06:40:00.026Z,14.00
2023-05-17T06:40:58.017Z,11.80
2023-05-17T06:41:55.849Z,11.40
2023-05-17T06:42:55.838Z,13.50
2023-05-17T06:43:55.829Z,11.20
2023-05-17T06:44:55.835Z,12.50
2023-05-17T06:45:56.348Z,10.30
2023-05-17T06:46:55.803Z,12.90
2023-05-17T06:47:55.882Z,10.60
2023-05-17T06:48:56.724Z,11.50
2023-05-17T06:49:55.806Z,11.10
2023-05-17T06:50:55.827Z,10.90
2023-05-17T06:51:55.766Z,10.60
2023-05-17T06:52:55.776Z,8.90
2023-05-17T06:53:55.764Z,13.50
2023-05-17T06:54:55.773Z,11.30
2023-05-17T06:55:55.740Z,12.00
2023-05-17T06:56:55.731Z,10.30
2023-05-17T06:57:55.730Z,14.70
2023-05-17T06:58:55.717Z,10.60
2023-05-17T06:59:55.741Z,12.10
2023-05-17T07:00:55.707Z,11.00
2023-05-17T07:01:55.814Z,11.40
2023-05-17T07:02:56.639Z,13.20
2023-05-17T07:03:55.943Z,11.30
2023-05-17T07:04:55.722Z,11.30
2023-05-17T07:05:55.673Z,11.60
2023-05-17T07:06:55.652Z,10.30
2023-05-17T07:07:55.650Z,12.20
2023-05-17T07:08:55.663Z,11.20
2023-05-17T07:09:55.647Z,9.30
2023-05-17T07:10:55.619Z,12.10
2023-05-17T07:11:55.618Z,10.50
2023-05-17T07:12:55.651Z,11.90
2023-05-17T07:13:55.628Z,11.30
2023-05-17T07:14:55.598Z,8.80
2023-05-17T07:15:55.581Z,11.90
2023-05-17T07:16:56.577Z,10.70
2023-05-17T07:17:55.739Z,12.80
2023-05-17T07:18:55.616Z,10.00
2023-05-17T07:19:55.656Z,13.90
2023-05-17T07:20:55.564Z,10.60
2023-05-17T07:21:55.552Z,10.90
2023-05-17T07:22:55.557Z,11.90
2023-05-17T07:23:55.553Z,10.20
2023-05-17T07:24:55.514Z,11.20
2023-05-17T07:25:55.555Z,10.40
2023-05-17T07:26:55.496Z,7.90
2023-05-17T07:27:56.534Z,10.40
2023-05-17T07:28:55.498Z,12.00
2023-05-17T07:29:55.484Z,11.10
2023-05-17T07:30:55.471Z,10.40
2023-05-17T07:31:55.471Z,11.00
2023-05-17T07:32:55.547Z,9.90
2023-05-17T07:33:55.492Z,10.10
2023-05-17T07:34:55.455Z,9.70
2023-05-17T07:35:55.464Z,9.80
2023-05-17T07:36:55.426Z,9.60
2023-05-17T07:37:55.449Z,13.70
2023-05-17T07:38:55.419Z,10.50
2023-05-17T07:39:55.418Z,10.00
2023-05-17T07:40:55.398Z,12.30
2023-05-17T07:41:55.720Z,10.70
2023-05-17T07:42:55.405Z,9.60
2023-05-17T07:43:55.384Z,11.50
2023-05-17T07:44:55.373Z,10.30
2023-05-17T07:45:55.355Z,10.90
2023-05-17T07:46:55.446Z,8.40
2023-05-17T07:47:55.454Z,10.70
2023-05-17T07:48:58.134Z,9.30
2023-05-17T07:49:55.486Z,12.10
2023-05-17T07:50:55.314Z,10.70
2023-05-17T07:51:55.334Z,9.80
2023-05-17T07:52:55.305Z,11.30
2023-05-17T07:53:55.318Z,11.30
2023-05-17T07:54:55.536Z,9.50
2023-05-17T07:55:55.303Z,10.20
2023-05-17T07:56:55.314Z,11.70
2023-05-17T07:57:55.279Z,9.50
2023-05-17T07:58:55.294Z,10.00
2023-05-17T07:59:55.248Z,7.50
2023-05-17T08:00:55.281Z,9.90
2023-05-17T08:01:55.253Z,11.20
2023-05-17T08:02:55.264Z,12.20
2023-05-17T08:03:55.227Z,9.40
2023-05-17T08:04:55.246Z,11.70
2023-05-17T08:05:55.267Z,11.20
2023-05-17T08:06:56.205Z,11.90
2023-05-17T08:07:55.200Z,9.30
2023-05-17T08:08:55.192Z,10.30
2023-05-17T08:09:55.203Z,10.20
2023-05-17T08:10:55.200Z,9.10
2023-05-17T08:11:55.166Z,12.80
2023-05-17T08:12:55.156Z,8.40
2023-05-17T08:13:55.149Z,8.80
2023-05-17T08:14:55.167Z,8.00
2023-05-17T08:16:05.193Z,7.20
2023-05-17T08:16:57.129Z,9.70
2023-05-17T08:17:55.207Z,9.60
2023-05-17T08:18:55.199Z,8.70
2023-05-17T08:19:55.157Z,7.60
2023-05-17T08:20:55.118Z,7.20
2023-05-17T08:21:55.089Z,8.70
2023-05-17T08:22:55.229Z,8.60
2023-05-17T08:23:55.101Z,8.10
2023-05-17T08:24:56.570Z,7.30
2023-05-17T08:25:55.056Z,8.00
2023-05-17T08:26:55.055Z,9.30
2023-05-17T08:27:55.052Z,7.60
2023-05-17T08:28:55.099Z,7.70
2023-05-17T08:29:55.027Z,9.50
2023-05-17T08:30:55.029Z,8.00
2023-05-17T08:31:55.555Z,7.90
2023-05-17T08:32:55.120Z,8.20
2023-05-17T08:33:55.039Z,7.10
2023-05-17T08:34:54.997Z,10.10
2023-05-17T08:35:55.964Z,8.50
2023-05-17T08:36:55.001Z,7.70
2023-05-17T08:37:54.995Z,9.20
2023-05-17T08:38:54.982Z,9.50
2023-05-17T08:39:54.959Z,8.00
2023-05-17T08:40:54.945Z,7.30
2023-05-17T08:41:54.930Z,6.90
2023-05-17T08:42:54.955Z,8.80
2023-05-17T08:43:54.938Z,6.70
2023-05-17T08:44:54.934Z,7.20
2023-05-17T08:45:54.906Z,8.90
2023-05-17T08:46:54.899Z,7.60
2023-05-17T08:47:54.980Z,8.60
2023-05-17T08:48:54.985Z,7.50
2023-05-17T08:49:54.871Z,7.00
2023-05-17T08:50:54.877Z,9.30
2023-05-17T08:51:54.855Z,7.70
2023-05-17T08:52:54.932Z,6.00
2023-05-17T08:53:55.011Z,8.90
2023-05-17T08:54:55.825Z,9.60
2023-05-17T08:55:54.826Z,9.80
2023-05-17T08:56:54.812Z,6.10
2023-05-17T08:57:54.839Z,7.50
2023-05-17T08:58:57.204Z,8.90
2023-05-17T08:59:55.792Z,7.10
2023-05-17T09:00:54.788Z,7.80
2023-05-17T09:01:54.820Z,7.30
2023-05-17T09:02:54.855Z,8.20
2023-05-17T09:03:54.928Z,7.60
2023-05-17T09:04:54.846Z,7.00
2023-05-17T09:05:54.826Z,7.80
2023-05-17T09:06:54.775Z,7.40
2023-05-17T09:07:54.729Z,8.10
2023-05-17T09:08:54.919Z,8.30
2023-05-17T09:09:54.727Z,9.70
2023-05-17T09:10:54.712Z,11.80
2023-05-17T09:11:54.758Z,9.30
2023-05-17T09:12:54.689Z,10.80
2023-05-17T09:13:54.685Z,9.10
2023-05-17T09:14:54.681Z,8.70
2023-05-17T09:15:54.672Z,9.90
2023-05-17T09:16:54.689Z,7.00
2023-05-17T09:17:54.795Z,8.60
2023-05-17T09:18:57.243Z,10.40
2023-05-17T09:19:54.785Z,9.00
2023-05-17T09:20:54.643Z,8.80
2023-05-17T09:21:54.655Z,9.30
2023-05-17T09:22:54.621Z,8.90
2023-05-17T09:24:05.600Z,9.30
2023-05-17T09:24:56.608Z,8.60
2023-05-17T09:25:54.628Z,8.60
2023-05-17T09:26:54.689Z,10.40
2023-05-17T09:27:54.581Z,8.70
2023-05-17T09:28:54.574Z,9.70
2023-05-17T09:29:54.573Z,9.20
2023-05-17T09:30:54.591Z,8.80
2023-05-17T09:31:54.558Z,8.70
2023-05-17T09:32:54.555Z,8.60
2023-05-17T09:33:54.582Z,10.10
2023-05-17T09:34:54.532Z,9.00
2023-05-17T09:35:54.552Z,8.40
2023-05-17T09:36:54.524Z,7.90
2023-05-17T09:37:54.513Z,6.00
2023-05-17T09:38:54.506Z,8.70
2023-05-17T09:39:54.527Z,7.40
2023-05-17T09:40:54.515Z,8.60
2023-05-17T09:41:54.481Z,10.40
2023-05-17T09:42:54.480Z,10.30
2023-05-17T09:43:54.462Z,9.30
2023-05-17T09:44:54.522Z,8.60
2023-05-17T09:45:54.488Z,7.00
2023-05-17T09:46:54.451Z,10.40
2023-05-17T09:47:54.562Z,10.50
2023-05-17T09:48:54.545Z,9.40
2023-05-17T09:49:54.462Z,8.70
2023-05-17T09:50:54.418Z,8.10
2023-05-17T09:51:54.408Z,8.60
2023-05-17T09:52:54.416Z,7.60
2023-05-17T09:53:54.397Z,8.70
2023-05-17T09:54:54.426Z,11.90
2023-05-17T09:55:54.384Z,9.40
2023-05-17T09:56:54.371Z,10.40
2023-05-17T09:57:54.357Z,7.80
2023-05-17T09:58:54.355Z,7.90
2023-05-17T09:59:54.376Z,10.60
2023-05-17T10:00:54.354Z,8.60
2023-05-17T10:01:54.379Z,8.10
2023-05-17T10:02:54.447Z,11.10
2023-05-17T10:03:54.386Z,10.30
2023-05-17T10:04:54.332Z,10.50
2023-05-17T10:05:54.313Z,7.30
2023-05-17T10:06:54.291Z,8.90
2023-05-17T10:07:54.286Z,9.50
2023-05-17T10:08:54.708Z,9.30
2023-05-17T10:09:54.273Z,8.60
2023-05-17T10:10:54.257Z,7.60
2023-05-17T10:11:54.255Z,8.40
2023-05-17T10:12:54.253Z,6.50
2023-05-17T10:13:54.271Z,7.30
2023-05-17T10:14:54.319Z,8.30
2023-05-17T10:15:55.234Z,7.50
2023-05-17T10:16:54.244Z,7.20
2023-05-17T10:17:54.315Z,6.70
2023-05-17T10:18:54.279Z,7.80
2023-05-17T10:19:54.322Z,7.70
2023-05-17T10:20:54.194Z,7.90
2023-05-17T10:21:54.177Z,8.10
2023-05-17T10:22:54.198Z,12.30
2023-05-17T10:23:54.180Z,9.60
2023-05-17T10:24:54.214Z,7.60
2023-05-17T10:25:54.149Z,7.70
2023-05-17T10:26:54.157Z,8.00
2023-05-17T10:27:54.166Z,8.80
2023-05-17T10:28:54.124Z,10.60
2023-05-17T10:29:54.131Z,8.90
2023-05-17T10:30:54.110Z,7.60
2023-05-17T10:31:54.099Z,8.00
2023-05-17T10:32:54.243Z,8.40
2023-05-17T10:33:54.192Z,8.30
2023-05-17T10:35:05.892Z,7.80
2023-05-17T10:35:56.079Z,9.10
2023-05-17T10:36:54.093Z,6.10
2023-05-17T10:37:54.085Z,7.60
2023-05-17T10:38:54.053Z,8.20
2023-05-17T10:39:54.038Z,8.00
2023-05-17T10:40:54.041Z,7.70
2023-05-17T10:41:57.986Z,8.80
2023-05-17T10:42:55.023Z,6.90
2023-05-17T10:43:54.007Z,7.80
2023-05-17T10:44:54.007Z,9.10
2023-05-17T10:45:54.053Z,8.00
2023-05-17T10:46:54.005Z,9.40
2023-05-17T10:47:54.006Z,8.40
2023-05-17T10:48:54.006Z,7.80
2023-05-17T10:49:53.962Z,9.60
2023-05-17T10:51:00.973Z,6.60
2023-05-17T10:51:55.979Z,7.60
2023-05-17T10:52:53.939Z,10.00
2023-05-17T10:53:53.928Z,8.00
2023-05-17T10:55:27.868Z,8.10
2023-05-17T10:55:53.938Z,7.30
2023-05-17T10:56:53.933Z,8.10
2023-05-17T10:57:53.899Z,10.00
2023-05-17T10:58:53.888Z,7.30
2023-05-17T10:59:53.884Z,8.10
2023-05-17T11:00:55.299Z,8.50
2023-05-17T11:01:54.869Z,9.90
2023-05-17T11:02:53.910Z,9.40
2023-05-17T11:03:53.853Z,7.20
2023-05-17T11:04:53.911Z,7.60
2023-05-17T11:05:54.268Z,7.70
2023-05-17T11:06:54.002Z,7.10
2023-05-17T11:07:53.810Z,7.90
2023-05-17T11:08:53.818Z,9.30
2023-05-17T11:09:53.812Z,8.40
2023-05-17T11:10:53.828Z,8.00
2023-05-17T11:11:53.792Z,5.70
2023-05-17T11:12:53.830Z,9.00
2023-05-17T11:13:53.789Z,7.00
2023-05-17T11:14:53.809Z,9.40
2023-05-17T11:15:53.824Z,8.50
2023-05-17T11:16:55.036Z,10.00
2023-05-17T11:17:53.828Z,8.80
2023-05-17T11:18:53.814Z,9.30
2023-05-17T11:19:53.806Z,10.20
2023-05-17T11:20:53.851Z,8.50
2023-05-17T11:21:53.722Z,9.80
2023-05-17T11:22:53.711Z,10.60
2023-05-17T11:23:53.694Z,7.60
2023-05-17T11:24:53.717Z,9.30
2023-05-17T11:25:54.954Z,9.00
2023-05-17T11:26:54.680Z,9.30
2023-05-17T11:27:53.666Z,8.50
2023-05-17T11:28:53.672Z,8.70
2023-05-17T11:29:53.682Z,11.30
2023-05-17T11:30:53.847Z,9.70
2023-05-17T11:31:53.642Z,7.10
2023-05-17T11:32:53.697Z,8.10
2023-05-17T11:33:53.680Z,8.10
2023-05-17T11:34:53.647Z,7.50
2023-05-17T11:35:53.618Z,6.70
2023-05-17T11:36:53.608Z,8.90
2023-05-17T11:37:53.609Z,7.30
2023-05-17T11:39:01.404Z,8.60
2023-05-17T11:39:56.536Z,10.70
2023-05-17T11:40:53.581Z,9.20
2023-05-17T11:41:53.578Z,9.20
2023-05-17T11:42:53.564Z,8.40
2023-05-17T11:43:53.591Z,9.10
2023-05-17T11:44:53.575Z,7.80
2023-05-17T11:45:53.885Z,7.50
2023-05-17T11:46:53.536Z,8.60
2023-05-17T11:47:53.630Z,7.30
2023-05-17T11:48:53.925Z,8.50
2023-05-17T11:49:55.680Z,7.90
2023-05-17T11:50:54.528Z,7.70
2023-05-17T11:51:53.525Z,8.50
2023-05-17T11:52:53.517Z,9.00
2023-05-17T11:53:53.621Z,9.20
2023-05-17T11:54:53.474Z,8.10
2023-05-17T11:55:53.468Z,9.60
2023-05-17T11:56:53.458Z,8.70
2023-05-17T11:57:53.470Z,6.80
2023-05-17T11:58:53.439Z,9.80
2023-05-17T11:59:53.430Z,8.50
2023-05-17T12:00:53.487Z,6.70
2023-05-17T12:01:53.440Z,9.40
2023-05-17T12:02:53.465Z,8.00
2023-05-17T12:03:53.397Z,8.70
2023-05-17T12:04:53.431Z,7.70
2023-05-17T12:05:54.293Z,9.00
2023-05-17T12:06:53.655Z,8.30
2023-05-17T12:07:53.395Z,7.70
2023-05-17T12:08:53.393Z,9.60
2023-05-17T12:09:53.351Z,7.70
2023-05-17T12:10:53.387Z,7.90
2023-05-17T12:11:53.372Z,8.50
2023-05-17T12:12:53.369Z,7.70
2023-05-17T12:13:53.328Z,9.50
2023-05-17T12:14:53.330Z,9.40
2023-05-17T12:15:53.341Z,10.10
2023-05-17T12:16:53.334Z,8.40
2023-05-17T12:17:53.515Z,9.00
2023-05-17T12:18:53.405Z,8.30
2023-05-17T12:19:53.337Z,9.30
2023-05-17T12:20:53.279Z,8.90
2023-05-17T12:21:53.411Z,10.00
2023-05-17T12:22:53.250Z,8.10
2023-05-17T12:23:53.239Z,7.90
2023-05-17T12:24:54.163Z,6.30
2023-05-17T12:25:53.231Z,8.80
2023-05-17T12:26:53.246Z,13.30
2023-05-17T12:27:53.214Z,6.80
2023-05-17T12:28:53.256Z,8.50
2023-05-17T12:29:53.193Z,7.40
2023-05-17T12:30:53.253Z,7.80
2023-05-17T12:31:53.226Z,7.40
2023-05-17T12:32:53.311Z,10.50
2023-05-17T12:33:53.310Z,13.50
2023-05-17T12:34:53.149Z,7.70
2023-05-17T12:35:53.177Z,7.20
2023-05-17T12:36:53.137Z,8.00
2023-05-17T12:37:53.140Z,7.90
2023-05-17T12:38:53.128Z,7.10
2023-05-17T12:39:53.121Z,6.60
2023-05-17T12:40:54.145Z,7.90
2023-05-17T12:41:53.106Z,6.40
2023-05-17T12:42:53.096Z,8.10
2023-05-17T12:43:55.018Z,8.70
2023-05-17T12:44:55.101Z,6.80
2023-05-17T12:45:53.149Z,7.90
2023-05-17T12:46:53.063Z,8.10
2023-05-17T12:47:53.107Z,8.00
2023-05-17T12:48:53.141Z,6.60
2023-05-17T12:49:53.090Z,6.40
2023-05-17T12:50:53.033Z,6.50
2023-05-17T12:51:53.027Z,6.80
2023-05-17T12:52:53.020Z,5.80
2023-05-17T12:53:53.037Z,5.80
2023-05-17T12:54:53.028Z,9.30
2023-05-17T12:55:52.996Z,6.90
2023-05-17T12:56:52.986Z,6.50
2023-05-17T12:57:52.982Z,7.40
2023-05-17T12:58:53.036Z,6.60
2023-05-17T12:59:52.991Z,7.00
2023-05-17T13:00:52.962Z,6.20
2023-05-17T13:01:52.947Z,5.90
2023-05-17T13:02:53.047Z,5.70
2023-05-17T13:03:53.084Z,8.30
2023-05-17T13:04:53.019Z,8.00
2023-05-17T13:05:52.929Z,7.80
2023-05-17T13:06:52.919Z,7.30